Latest Coastal Weather Observations for Weipa

IDQ60701

Issued at 6:35 pm EST Sunday 1 March 2015 (issued every 10 minutes, with the page automatically refreshed every 10 minutes)

About coastal observations | Map of coastal stations | Coastal observations for QLD | Marine services | Other Formats
Station Details ID: 027045 Name: WEIPA AERO Lat: -12.68 Lon: 141.92 Height: 17.96 m
Data from the previous 72 hours. | See also: Recent months at Weipa
Date/Time
EST
Temp

°C
Wind Pressure Rain
since 9am
mm
Weather Cloud Vis
km
Sea
Height
m
Swell
Dir
 
Speed
knots
Gust
knots
hPa Trend Height
m
Period
s
Dir
01/06:30pm 29.6 NNW 4 6 1005.0 - 0.2 - - 10 - - - -
01/06:00pm 29.8 NNW 5 8 1004.7 - 0.2 - Mostly cloudy 10 - - - -
01/05:30pm 30.0 NW 5 8 1004.8 - 0.2 - Partly cloudy 10 - - - -
01/05:00pm 28.7 NW 6 9 1004.8 - 0.2 - Partly cloudy 10 - - - -
01/04:30pm 28.4 NW 8 12 1004.7 - 0.2 - Partly cloudy 10 - - - -
01/04:00pm 26.9 NNW 11 14 1004.8 - 0.2 - Partly cloudy 10 - - - -
01/03:30pm 29.2 NW 13 21 1004.8 - 0.2 - Partly cloudy 10 - - - -
01/03:00pm 31.0 WNW 9 13 1004.4 F 0.2 Distant precip. Mostly cloudy 25 - - - -
01/02:30pm 29.6 NW 10 15 1005.0 - 0.2 - Partly cloudy 10 - - - -
01/02:00pm 32.0 NNE 10 16 1005.1 - 0.2 - Mostly clear 10 - - - -
01/01:30pm 31.1 NNW 9 12 1005.4 - 0.2 - - 10 - - - -
01/01:00pm 30.9 NNW 11 16 1006.0 - 0.2 - Partly cloudy 10 - - - -
01/12:30pm 31.2 NNW 8 12 1006.6 - 0.2 - - 10 - - - -
01/12:00pm 30.3 NNE 5 10 1006.8 F 0.2 Distant precip. Mostly cloudy 20 - - - -
01/11:30am 29.4 N 7 12 1007.3 - 0.2 - Partly cloudy 10 - - - -
01/11:00am 29.1 NE 4 8 1007.5 - 0.2 - Mostly clear 10 - - - -
01/10:30am 29.7 NE 6 11 1007.7 - 0.0 - Partly cloudy 10 - - - -
01/10:00am 28.9 NE 7 12 1008.0 - 0.0 - Mostly clear 10 - - - -
01/09:30am 28.5 ENE 6 10 1008.1 - 0.0 - Partly cloudy 10 - - - -
01/09:00am 27.7 NE 6 9 1007.8 R 0.2 Fine Mostly cloudy 35 - - - -
01/08:30am 27.0 ENE 6 10 1007.8 - 0.2 - - 10 - - - -
01/08:00am 26.1 ENE 6 10 1007.2 - 0.2 - Mostly clear 10 - - - -
01/07:30am 25.1 ENE 5 7 1006.6 - 0.2 - - 10 - - - -
01/07:00am 24.0 E 3 5 1006.5 - 0.2 - - 10 - - - -
01/06:30am 24.0 E 3 5 1006.4 - 0.2 - - 10 - - - -
01/06:00am 23.9 SE 4 5 1005.8 R 0.2 Fine Mostly cloudy 30 - - - -
01/05:30am 24.0 ENE 3 4 1005.9 - 0.2 - - 10 - - - -
01/05:00am 24.0 ENE 4 6 1005.7 - 0.2 - - 10 - - - -
01/04:30am 24.0 E 3 5 1005.5 - 0.2 - - 10 - - - -
01/04:00am 24.0 ENE 3 5 1005.2 - 0.2 - - 10 - - - -
01/03:30am 24.1 ENE 3 5 1004.9 - 0.2 - - 10 - - - -
01/03:00am 24.2 NE 4 6 1004.9 - 0.2 - - 10 - - - -
01/02:30am 24.1 ENE 5 7 1005.3 - 0.2 - - 10 - - - -
01/02:00am 24.0 NE 2 3 1006.0 - 0.2 - - 10 - - - -
01/01:30am 24.3 ENE 3 5 1006.5 - 0.2 - - 10 - - - -
01/01:00am 24.4 E 3 5 1006.9 - 0.2 - - 10 - - - -
01/12:30am 24.6 E 3 5 1007.2 - 0.2 - - 10 - - - -
01/12:00am 24.8 NE 4 7 1007.1 - 0.2 - - 10 - - - -
 
Date/Time
EST
Temp

°C
Wind Pressure Rain
since 9am
mm
Weather Cloud Vis
km
Sea
Height
m
Swell
Dir
 
Speed
knots
Gust
knots
hPa Trend Height
m
Period
s
Dir
28/11:30pm 24.9 E 4 7 1007.3 - 0.2 - - 10 - - - -
28/11:00pm 25.0 ENE 5 7 1007.2 - 0.2 - - 10 - - - -
28/10:30pm 25.2 ENE 3 4 1007.3 - 0.2 - Partly cloudy 10 - - - -
28/10:00pm 25.2 ENE 3 4 1007.4 - 0.2 - Partly cloudy 10 - - - -
28/09:30pm 25.4 E 2 3 1007.2 - 0.2 - - 10 - - - -
28/09:00pm 25.5 ENE 3 4 1006.6 - 0.2 - - 10 - - - -
28/08:30pm 25.8 NNE 4 6 1007.0 - 0.2 - - 10 - - - -
28/08:00pm 26.3 N 4 6 1006.3 - 0.2 - - 10 - - - -
28/07:30pm 26.8 NNW 6 9 1005.7 - 0.2 - Partly cloudy 10 - - - -
28/07:00pm 27.1 N 5 8 1005.6 - 0.2 - Partly cloudy 10 - - - -
28/06:30pm 27.9 WNW 5 8 1005.1 - 0.2 - Partly cloudy 10 - - - -
28/06:00pm 29.2 W 5 8 1004.6 - 0.2 - - 10 - - - -
28/05:30pm 29.8 W 4 9 1004.8 - 0.2 - Partly cloudy 10 - - - -
28/05:00pm 30.3 WNW 7 11 1004.6 - 0.2 - Partly cloudy 10 - - - -
28/04:30pm 30.2 WNW 7 13 1004.6 - 0.2 - Partly cloudy 10 - - - -
28/04:00pm 30.5 NW 6 10 1004.5 - 0.2 - Partly cloudy 10 - - - -
28/03:30pm 30.1 WNW 8 12 1004.7 - 0.2 - Partly cloudy 10 - - - -
28/03:00pm 30.6 WNW 9 12 1005.0 F 0.2 Distant precip. Mostly cloudy 25 - - - -
28/02:30pm 30.6 NW 10 15 1005.3 - 0.2 - Partly cloudy 10 - - - -
28/02:00pm 30.6 WNW 10 15 1005.7 - 0.2 - Partly cloudy 10 - - - -
28/01:30pm 30.4 WNW 7 13 1006.0 - 0.2 - Partly cloudy 10 - - - -
28/01:00pm 30.8 NNW 10 14 1006.6 - 0.2 - Partly cloudy 10 - - - -
28/12:30pm 30.1 NNW 11 15 1007.0 - 0.2 - Partly cloudy 10 - - - -
28/12:00pm 29.2 NNW 11 17 1007.1 - 0.2 - Cloudy 10 - - - -
28/11:30am 30.0 NNW 11 16 1007.7 - 0.2 - Partly cloudy 10 - - - -
28/11:00am 29.1 NNW 13 19 1007.8 - 0.2 - Partly cloudy 10 - - - -
28/10:30am 27.8 NNW 13 18 1008.2 - 0.0 - Partly cloudy 10 - - - -
28/10:00am 28.6 N 9 14 1008.1 - 0.0 - Partly cloudy 10 - - - -
28/09:30am 27.8 NE 5 8 1008.2 - 0.0 - Partly cloudy 10 - - - -
28/09:00am 27.3 NNE 7 10 1007.7 R 10.0 Fine Mostly cloudy 30 - - - -
28/08:30am 26.3 NNE 7 10 1007.9 - 10.0 - Partly cloudy 10 - - - -
28/08:00am 25.8 ENE 5 6 1007.7 - 10.0 - Partly cloudy 10 - - - -
28/07:30am 24.9 ENE 3 4 1007.1 - 10.0 - - 10 - - - -
28/07:00am 24.4 ENE 3 4 1006.6 - 10.0 - - 10 - - - -
28/06:30am 24.2 ESE 2 3 1006.5 - 10.0 - - 10 - - - -
28/06:00am 24.3 E 3 4 1006.0 F 10.0 Fine Mostly cloudy 30 - - - -
28/05:30am 24.3 ESE 3 3 1006.0 - 10.0 - - 10 - - - -
28/05:00am 24.3 ENE 3 4 1005.7 - 10.0 - Partly cloudy 10 - - - -
28/04:30am 24.3 NE 3 4 1005.7 - 10.0 - Partly cloudy 10 - - - -
28/04:00am 24.3 NE 3 3 1005.7 - 10.0 - Partly cloudy 10 - - - -
28/03:30am 24.2 NE 1 2 1005.7 - 10.0 - Partly cloudy 10 - - - -
28/03:00am 24.2 ESE 1 2 1005.8 - 10.0 - - 10 - - - -
28/02:30am 24.2 NNE 3 4 1006.1 - 10.0 - Partly cloudy 10 - - - -
28/02:00am 24.2 NNE 3 4 1006.5 - 10.0 - Cloudy 10 - - - -
28/01:30am 24.2 E 2 3 1007.1 - 10.0 - Partly cloudy 10 - - - -
28/01:00am 24.2 NNE 3 4 1007.7 - 10.0 - Partly cloudy 10 - - - -
28/12:30am 24.2 N 3 5 1008.1 - 10.0 - Partly cloudy 10 - - - -
28/12:00am 24.2 NNE 3 5 1008.0 - 10.0 - Partly cloudy 10 - - - -
 
Date/Time
EST
Temp

°C
Wind Pressure Rain
since 9am
mm
Weather Cloud Vis
km
Sea
Height
m
Swell
Dir
 
Speed
knots
Gust
knots
hPa Trend Height
m
Period
s
Dir
27/11:30pm 24.1 NE 3 4 1008.1 - 10.0 - Partly cloudy 10 - - - -
27/11:04pm 24.3 NE 2 3 1008.2 - 10.0 - Partly cloudy 10 - - - -
27/11:00pm 24.2 NE 2 3 1008.1 - 10.0 - Partly cloudy 10 - - - -
27/10:42pm 24.3 E 3 3 1007.9 - 10.0 - Partly cloudy 10 - - - -
27/10:30pm 24.2 E 3 4 1007.8 - 10.0 - Partly cloudy 10 - - - -
27/10:00pm 24.4 CALM 0 0 1007.6 - 10.0 - - 10 - - - -
27/09:30pm 24.4 ESE 2 3 1007.5 - 10.0 - - 10 - - - -
27/09:00pm 24.4 N 2 3 1007.2 - 10.0 - - 10 - - - -
27/08:30pm 24.1 NE 1 1 1007.2 - 10.0 - Partly cloudy 10 - - - -
27/08:00pm 24.1 N 3 4 1006.9 - 10.0 - Partly cloudy 10 - - - -
27/07:30pm 24.1 NNE 1 3 1006.7 - 10.0 - Partly cloudy 10 - - - -
27/07:00pm 24.0 NE 2 3 1006.5 - 9.8 - Partly cloudy 10 - - - -
27/06:30pm 23.9 N 4 6 1006.0 - 9.6 - Cloudy 10 - - - -
27/06:14pm 24.0 N 4 6 1006.0 - 9.2 - Partly cloudy 8 - - - -
27/06:00pm 24.2 N 3 5 1005.7 - 8.6 - Cloudy 5 - - - -
27/05:30pm 24.6 N 3 5 1005.9 - 5.8 - Partly cloudy 5 - - - -
27/05:25pm 24.6 NW 2 4 1005.8 - 5.4 - Partly cloudy 2 - - - -
27/05:15pm 24.6 N 1 3 1005.7 - 4.6 - Partly cloudy 0.9 - - - -
27/05:07pm 24.7 NE 2 3 1005.8 - 2.2 - Partly cloudy 5 - - - -
27/05:00pm 24.8 ENE 1 3 1005.9 - 1.4 - Partly cloudy 10 - - - -
27/04:55pm 24.8 ESE 1 2 1005.9 - 1.4 - Partly cloudy 10 - - - -
27/04:42pm 24.8 SSW 1 2 1005.9 - 1.4 - Partly cloudy 10 - - - -
27/04:30pm 24.7 S 1 3 1006.0 - 1.2 - Partly cloudy 10 - - - -
27/04:00pm 24.8 W 3 5 1005.8 - 1.0 - Partly cloudy 10 - - - -
27/03:38pm 24.8 SW 3 6 1005.6 - 0.8 - Partly cloudy 10 - - - -
27/03:30pm 24.8 SW 3 5 1005.3 - 0.8 - Partly cloudy 7 - - - -
27/03:20pm 24.7 SW 4 7 1005.3 - 0.8 - Partly cloudy 3 - - - -
27/03:14pm 24.9 SW 4 7 1005.4 - 0.6 - Partly cloudy 5 - - - -
27/03:05pm 25.1 W 3 7 1005.5 - 0.0 - Partly cloudy 10 - - - -
27/03:00pm 25.2 W 3 5 1005.4 R 0.0 Showers Cloudy 5 - - - -
27/02:30pm 25.4 WSW 6 10 1005.5 - 0.0 - Partly cloudy 10 - - - -
27/02:00pm 26.6 ESE 14 18 1005.3 - 0.0 - Partly cloudy 10 - - - -
27/01:30pm 30.5 N 8 12 1005.4 - 0.0 - Partly cloudy 10 - - - -
27/01:00pm 30.8 NNW 7 13 1006.0 - 0.0 - Partly cloudy 10 - - - -
27/12:30pm 29.8 N 6 8 1006.5 - 0.0 - - 10 - - - -
27/12:00pm 29.6 N 8 11 1007.0 - 0.0 - Mostly clear 10 - - - -
27/11:30am 29.3 NW 7 12 1007.8 - 0.0 - Partly cloudy 10 - - - -
27/11:00am 29.6 N 6 10 1008.2 - 0.0 - Partly cloudy 10 - - - -
27/10:30am 28.5 N 4 8 1008.3 - 0.0 - Partly cloudy 10 - - - -
27/10:00am 28.3 N 5 7 1008.4 - 0.0 - Partly cloudy 10 - - - -
27/09:30am 27.8 NNW 7 11 1008.4 - 0.0 - Partly cloudy 10 - - - -
27/09:00am 27.0 N 6 10 1008.2 - 3.4 - Cloudy 10 - - - -
27/08:30am 26.1 NNE 3 6 1007.8 - 3.4 - Partly cloudy 10 - - - -
27/08:00am 25.3 NNE 3 4 1007.4 - 3.4 - Cloudy 10 - - - -
27/07:30am 24.8 NNE 3 4 1007.2 - 3.4 - Cloudy 10 - - - -
27/07:00am 24.5 ENE 2 3 1006.9 - 3.4 - Cloudy 10 - - - -
27/06:30am 24.3 ENE 2 3 1006.8 - 3.4 - Cloudy 10 - - - -
27/06:00am 24.3 ESE 3 3 1006.0 S 3.4 Fine Mostly cloudy 30 - - - -
27/05:30am 24.3 NNE 1 2 1005.9 - 3.4 - Partly cloudy 10 - - - -
27/05:00am 24.4 E 1 2 1005.7 - 3.4 - Partly cloudy 10 - - - -
27/04:30am 24.4 E 1 2 1005.6 - 3.4 - Partly cloudy 10 - - - -
27/04:00am 24.5 E 2 3 1005.5 - 3.4 - Cloudy 10 - - - -
27/03:30am 24.5 E 3 4 1005.6 - 3.4 - Cloudy 10 - - - -
27/03:00am 24.5 E 3 4 1005.5 - 3.4 - Mostly clear 10 - - - -
27/02:30am 24.5 E 4 5 1006.0 - 3.4 - Partly cloudy 10 - - - -
27/02:00am 24.6 E 4 6 1006.5 - 3.4 - - 10 - - - -
27/01:30am 24.7 E 3 5 1006.8 - 3.4 - Partly cloudy 10 - - - -
27/01:00am 24.8 ESE 4 5 1007.2 - 3.4 - Cloudy 10 - - - -
27/12:30am 24.8 E 4 5 1007.6 - 3.4 - Cloudy 10 - - - -
27/12:00am 24.9 E 5 6 1007.6 - 3.4 - Cloudy 10 - - - -
 
Date/Time
EST
Temp

°C
Wind Pressure Rain
since 9am
mm
Weather Cloud Vis
km
Sea
Height
m
Swell
Dir
 
Speed
knots
Gust
knots
hPa Trend Height
m
Period
s
Dir
26/11:30pm 25.1 ESE 4 6 1008.1 - 3.4 - Cloudy 10 - - - -
26/11:00pm 25.3 ESE 6 8 1008.2 - 3.4 - Partly cloudy 10 - - - -
26/10:30pm 25.5 ESE 5 6 1008.2 - 3.4 - Partly cloudy 10 - - - -
26/10:00pm 26.1 SE 3 5 1008.0 - 3.4 - Partly cloudy 10 - - - -
26/09:30pm 26.3 CALM 0 1 1007.6 - 3.4 - Partly cloudy 10 - - - -
26/09:00pm 26.3 E 1 2 1007.0 - 3.4 - - 10 - - - -
26/08:30pm 26.5 CALM 0 1 1006.8 - 3.4 - - 10 - - - -
26/08:00pm 26.3 NNE 3 4 1006.1 - 3.4 - Partly cloudy 10 - - - -
26/07:30pm 26.7 WNW 1 2 1005.6 - 3.4 - - 10 - - - -
26/07:00pm 27.4 W 3 3 1005.4 - 3.4 - - 10 - - - -

Other Formats:

Comma delimited format used in spreadsheet applications
http://www.bom.gov.au/fwo/IDQ60701/IDQ60701.94170.axf

JavaScript Object Notation format (JSON) in row-major order
http://www.bom.gov.au/fwo/IDQ60701/IDQ60701.94170.json